sensor_id;sensor_type;location;lat;lon;timestamp;P1;durP1;ratioP1;P2;durP2;ratioP2
21886;SDS011;11108;49.988;8.182;2022-09-01T00:00:12;5.47;;;3.73;;
21886;SDS011;11108;49.988;8.182;2022-09-01T00:02:38;3.50;;;3.20;;
21886;SDS011;11108;49.988;8.182;2022-09-01T00:05:04;3.30;;;3.03;;
21886;SDS011;11108;49.988;8.182;2022-09-01T00:07:31;3.00;;;2.80;;
21886;SDS011;11108;49.988;8.182;2022-09-01T00:09:58;3.73;;;3.37;;
21886;SDS011;11108;49.988;8.182;2022-09-01T00:12:24;3.20;;;2.90;;
21886;SDS011;11108;49.988;8.182;2022-09-01T00:14:49;4.43;;;3.50;;
21886;SDS011;11108;49.988;8.182;2022-09-01T00:17:15;3.37;;;3.07;;
21886;SDS011;11108;49.988;8.182;2022-09-01T00:19:40;2.90;;;2.70;;
21886;SDS011;11108;49.988;8.182;2022-09-01T00:22:05;3.40;;;3.10;;
21886;SDS011;11108;49.988;8.182;2022-09-01T00:24:31;3.23;;;2.93;;
21886;SDS011;11108;49.988;8.182;2022-09-01T00:26:57;2.93;;;2.70;;
21886;SDS011;11108;49.988;8.182;2022-09-01T00:29:22;3.07;;;2.87;;
21886;SDS011;11108;49.988;8.182;2022-09-01T00:31:48;3.23;;;2.93;;
21886;SDS011;11108;49.988;8.182;2022-09-01T00:34:14;3.43;;;3.13;;
21886;SDS011;11108;49.988;8.182;2022-09-01T00:36:39;3.50;;;3.13;;
21886;SDS011;11108;49.988;8.182;2022-09-01T00:39:04;2.80;;;2.60;;
21886;SDS011;11108;49.988;8.182;2022-09-01T00:41:30;2.80;;;2.70;;
21886;SDS011;11108;49.988;8.182;2022-09-01T00:44:00;3.30;;;2.50;;
21886;SDS011;11108;49.988;8.182;2022-09-01T00:46:27;2.97;;;2.77;;
21886;SDS011;11108;49.988;8.182;2022-09-01T00:48:55;2.70;;;2.60;;
21886;SDS011;11108;49.988;8.182;2022-09-01T00:51:21;2.93;;;2.73;;
21886;SDS011;11108;49.988;8.182;2022-09-01T00:53:46;3.17;;;2.97;;
21886;SDS011;11108;49.988;8.182;2022-09-01T00:56:12;2.73;;;2.53;;
21886;SDS011;11108;49.988;8.182;2022-09-01T00:58:37;3.23;;;2.87;;
21886;SDS011;11108;49.988;8.182;2022-09-01T01:01:04;2.57;;;2.47;;
21886;SDS011;11108;49.988;8.182;2022-09-01T01:03:29;3.10;;;2.90;;
21886;SDS011;11108;49.988;8.182;2022-09-01T01:05:56;2.80;;;2.60;;
21886;SDS011;11108;49.988;8.182;2022-09-01T01:08:26;2.80;;;2.60;;
21886;SDS011;11108;49.988;8.182;2022-09-01T01:11:05;2.73;;;2.53;;
21886;SDS011;11108;49.988;8.182;2022-09-01T01:13:31;2.80;;;2.60;;
21886;SDS011;11108;49.988;8.182;2022-09-01T01:16:00;2.83;;;2.70;;
21886;SDS011;11108;49.988;8.182;2022-09-01T01:18:25;2.90;;;2.70;;
21886;SDS011;11108;49.988;8.182;2022-09-01T01:21:03;3.17;;;2.97;;
21886;SDS011;11108;49.988;8.182;2022-09-01T01:23:50;2.80;;;2.60;;
21886;SDS011;11108;49.988;8.182;2022-09-01T01:26:18;2.63;;;2.50;;
21886;SDS011;11108;49.988;8.182;2022-09-01T01:28:44;3.27;;;2.97;;
21886;SDS011;11108;49.988;8.182;2022-09-01T01:31:13;2.50;;;2.40;;
21886;SDS011;11108;49.988;8.182;2022-09-01T01:33:40;2.37;;;2.17;;
21886;SDS011;11108;49.988;8.182;2022-09-01T01:36:17;2.73;;;2.63;;
21886;SDS011;11108;49.988;8.182;2022-09-01T01:38:44;2.53;;;2.40;;
21886;SDS011;11108;49.988;8.182;2022-09-01T01:41:10;2.60;;;2.40;;
21886;SDS011;11108;49.988;8.182;2022-09-01T01:43:36;2.63;;;2.50;;
21886;SDS011;11108;49.988;8.182;2022-09-01T01:46:02;2.00;;;1.90;;
21886;SDS011;11108;49.988;8.182;2022-09-01T01:48:29;2.70;;;2.50;;
21886;SDS011;11108;49.988;8.182;2022-09-01T01:50:58;2.50;;;2.40;;
21886;SDS011;11108;49.988;8.182;2022-09-01T01:53:24;2.60;;;2.50;;
21886;SDS011;11108;49.988;8.182;2022-09-01T01:55:50;2.40;;;2.30;;
21886;SDS011;11108;49.988;8.182;2022-09-01T01:58:16;2.57;;;2.30;;
21886;SDS011;11108;49.988;8.182;2022-09-01T02:00:44;2.53;;;2.33;;
21886;SDS011;11108;49.988;8.182;2022-09-01T02:03:11;2.60;;;2.40;;
21886;SDS011;11108;49.988;8.182;2022-09-01T02:05:37;2.30;;;2.10;;
21886;SDS011;11108;49.988;8.182;2022-09-01T02:08:05;2.73;;;2.53;;
21886;SDS011;11108;49.988;8.182;2022-09-01T02:10:34;2.23;;;2.13;;
21886;SDS011;11108;49.988;8.182;2022-09-01T02:13:00;2.00;;;1.90;;
21886;SDS011;11108;49.988;8.182;2022-09-01T02:15:31;2.30;;;2.20;;
21886;SDS011;11108;49.988;8.182;2022-09-01T02:18:07;2.33;;;2.23;;
21886;SDS011;11108;49.988;8.182;2022-09-01T02:20:32;2.07;;;1.97;;
21886;SDS011;11108;49.988;8.182;2022-09-01T02:22:58;2.20;;;2.10;;
21886;SDS011;11108;49.988;8.182;2022-09-01T02:25:33;2.20;;;2.10;;
21886;SDS011;11108;49.988;8.182;2022-09-01T02:27:59;2.43;;;2.30;;
21886;SDS011;11108;49.988;8.182;2022-09-01T02:30:26;2.17;;;2.07;;
21886;SDS011;11108;49.988;8.182;2022-09-01T02:32:52;2.17;;;2.07;;
21886;SDS011;11108;49.988;8.182;2022-09-01T02:35:17;2.67;;;2.47;;
21886;SDS011;11108;49.988;8.182;2022-09-01T02:37:43;2.30;;;2.20;;
21886;SDS011;11108;49.988;8.182;2022-09-01T02:40:09;2.00;;;1.90;;
21886;SDS011;11108;49.988;8.182;2022-09-01T02:42:36;2.20;;;2.00;;
21886;SDS011;11108;49.988;8.182;2022-09-01T02:45:04;2.80;;;2.60;;
21886;SDS011;11108;49.988;8.182;2022-09-01T02:47:32;1.93;;;1.90;;
21886;SDS011;11108;49.988;8.182;2022-09-01T02:49:58;2.27;;;2.17;;
21886;SDS011;11108;49.988;8.182;2022-09-01T02:52:24;2.00;;;1.90;;
21886;SDS011;11108;49.988;8.182;2022-09-01T02:54:50;2.30;;;2.20;;
21886;SDS011;11108;49.988;8.182;2022-09-01T02:57:16;2.40;;;2.20;;
21886;SDS011;11108;49.988;8.182;2022-09-01T02:59:41;2.00;;;1.90;;
21886;SDS011;11108;49.988;8.182;2022-09-01T03:02:07;2.20;;;2.07;;
21886;SDS011;11108;49.988;8.182;2022-09-01T03:04:32;2.00;;;1.90;;
21886;SDS011;11108;49.988;8.182;2022-09-01T03:07:00;2.23;;;1.87;;
21886;SDS011;11108;49.988;8.182;2022-09-01T03:09:25;2.13;;;2.03;;
21886;SDS011;11108;49.988;8.182;2022-09-01T03:11:52;2.17;;;2.07;;
21886;SDS011;11108;49.988;8.182;2022-09-01T03:14:18;2.17;;;2.07;;
21886;SDS011;11108;49.988;8.182;2022-09-01T03:16:43;2.00;;;1.90;;
21886;SDS011;11108;49.988;8.182;2022-09-01T03:19:09;1.83;;;1.73;;
21886;SDS011;11108;49.988;8.182;2022-09-01T03:21:36;2.10;;;2.00;;
21886;SDS011;11108;49.988;8.182;2022-09-01T03:24:03;2.27;;;2.17;;
21886;SDS011;11108;49.988;8.182;2022-09-01T03:26:29;1.80;;;1.70;;
21886;SDS011;11108;49.988;8.182;2022-09-01T03:28:55;2.20;;;2.10;;
21886;SDS011;11108;49.988;8.182;2022-09-01T03:31:20;2.20;;;2.00;;
21886;SDS011;11108;49.988;8.182;2022-09-01T03:33:46;1.80;;;1.70;;
21886;SDS011;11108;49.988;8.182;2022-09-01T03:36:11;2.20;;;2.10;;
21886;SDS011;11108;49.988;8.182;2022-09-01T03:38:43;2.10;;;2.00;;
21886;SDS011;11108;49.988;8.182;2022-09-01T03:41:08;2.20;;;2.00;;
21886;SDS011;11108;49.988;8.182;2022-09-01T03:43:34;2.10;;;2.00;;
21886;SDS011;11108;49.988;8.182;2022-09-01T03:45:59;1.73;;;1.63;;
21886;SDS011;11108;49.988;8.182;2022-09-01T03:48:25;1.90;;;1.80;;
21886;SDS011;11108;49.988;8.182;2022-09-01T03:50:52;2.20;;;2.10;;
21886;SDS011;11108;49.988;8.182;2022-09-01T03:53:19;1.90;;;1.80;;
21886;SDS011;11108;49.988;8.182;2022-09-01T03:55:45;1.70;;;1.70;;
21886;SDS011;11108;49.988;8.182;2022-09-01T03:58:11;1.80;;;1.70;;
21886;SDS011;11108;49.988;8.182;2022-09-01T04:00:39;1.77;;;1.70;;
21886;SDS011;11108;49.988;8.182;2022-09-01T04:03:06;2.17;;;1.97;;
21886;SDS011;11108;49.988;8.182;2022-09-01T04:05:32;2.00;;;1.90;;
21886;SDS011;11108;49.988;8.182;2022-09-01T04:07:59;1.70;;;1.60;;
21886;SDS011;11108;49.988;8.182;2022-09-01T04:10:28;1.97;;;1.87;;
21886;SDS011;11108;49.988;8.182;2022-09-01T04:12:53;1.73;;;1.63;;
21886;SDS011;11108;49.988;8.182;2022-09-01T04:15:20;1.50;;;1.50;;
21886;SDS011;11108;49.988;8.182;2022-09-01T04:17:46;4.57;;;2.27;;
21886;SDS011;11108;49.988;8.182;2022-09-01T04:20:29;1.87;;;1.77;;
21886;SDS011;11108;49.988;8.182;2022-09-01T04:23:04;1.57;;;1.50;;
21886;SDS011;11108;49.988;8.182;2022-09-01T04:25:35;1.90;;;1.77;;
21886;SDS011;11108;49.988;8.182;2022-09-01T04:28:02;1.83;;;1.73;;
21886;SDS011;11108;49.988;8.182;2022-09-01T04:30:36;1.63;;;1.60;;
21886;SDS011;11108;49.988;8.182;2022-09-01T04:33:04;2.10;;;1.90;;
21886;SDS011;11108;49.988;8.182;2022-09-01T04:35:29;1.67;;;1.67;;
21886;SDS011;11108;49.988;8.182;2022-09-01T04:37:56;1.77;;;1.67;;
21886;SDS011;11108;49.988;8.182;2022-09-01T04:40:21;1.73;;;1.63;;
21886;SDS011;11108;49.988;8.182;2022-09-01T04:42:48;1.90;;;1.80;;
21886;SDS011;11108;49.988;8.182;2022-09-01T04:45:13;1.80;;;1.70;;
21886;SDS011;11108;49.988;8.182;2022-09-01T04:47:39;1.53;;;1.53;;
21886;SDS011;11108;49.988;8.182;2022-09-01T04:50:06;1.80;;;1.70;;
21886;SDS011;11108;49.988;8.182;2022-09-01T04:52:37;1.83;;;1.80;;
21886;SDS011;11108;49.988;8.182;2022-09-01T04:55:03;1.60;;;1.60;;
21886;SDS011;11108;49.988;8.182;2022-09-01T04:57:28;1.97;;;1.87;;
21886;SDS011;11108;49.988;8.182;2022-09-01T04:59:55;1.80;;;1.70;;
21886;SDS011;11108;49.988;8.182;2022-09-01T05:02:21;1.60;;;1.50;;
21886;SDS011;11108;49.988;8.182;2022-09-01T05:04:50;1.73;;;1.63;;
21886;SDS011;11108;49.988;8.182;2022-09-01T05:07:17;1.80;;;1.70;;
21886;SDS011;11108;49.988;8.182;2022-09-01T05:09:42;1.70;;;1.60;;
21886;SDS011;11108;49.988;8.182;2022-09-01T05:12:09;1.57;;;1.47;;
21886;SDS011;11108;49.988;8.182;2022-09-01T05:14:41;1.70;;;1.60;;
21886;SDS011;11108;49.988;8.182;2022-09-01T05:17:08;1.63;;;1.53;;
21886;SDS011;11108;49.988;8.182;2022-09-01T05:19:41;2.17;;;2.03;;
21886;SDS011;11108;49.988;8.182;2022-09-01T05:22:07;1.60;;;1.60;;
21886;SDS011;11108;49.988;8.182;2022-09-01T05:24:33;1.70;;;1.60;;
21886;SDS011;11108;49.988;8.182;2022-09-01T05:26:59;1.40;;;1.40;;
21886;SDS011;11108;49.988;8.182;2022-09-01T05:29:25;1.90;;;1.40;;
21886;SDS011;11108;49.988;8.182;2022-09-01T05:31:52;2.17;;;1.70;;
21886;SDS011;11108;49.988;8.182;2022-09-01T05:34:18;1.70;;;1.60;;
21886;SDS011;11108;49.988;8.182;2022-09-01T05:36:46;1.57;;;1.57;;
21886;SDS011;11108;49.988;8.182;2022-09-01T05:39:14;1.70;;;1.60;;
21886;SDS011;11108;49.988;8.182;2022-09-01T05:41:39;1.67;;;1.57;;
21886;SDS011;11108;49.988;8.182;2022-09-01T05:44:05;1.70;;;1.60;;
21886;SDS011;11108;49.988;8.182;2022-09-01T05:46:32;1.67;;;1.57;;
21886;SDS011;11108;49.988;8.182;2022-09-01T05:48:58;1.57;;;1.50;;
21886;SDS011;11108;49.988;8.182;2022-09-01T05:51:24;1.57;;;1.47;;
21886;SDS011;11108;49.988;8.182;2022-09-01T05:53:54;1.57;;;1.47;;
21886;SDS011;11108;49.988;8.182;2022-09-01T05:56:23;1.50;;;1.40;;
21886;SDS011;11108;49.988;8.182;2022-09-01T05:58:48;1.63;;;1.53;;
21886;SDS011;11108;49.988;8.182;2022-09-01T06:01:18;1.30;;;1.30;;
21886;SDS011;11108;49.988;8.182;2022-09-01T06:03:46;1.37;;;1.37;;
21886;SDS011;11108;49.988;8.182;2022-09-01T06:06:11;1.47;;;1.47;;
21886;SDS011;11108;49.988;8.182;2022-09-01T06:08:36;1.80;;;1.70;;
21886;SDS011;11108;49.988;8.182;2022-09-01T06:11:02;1.50;;;1.47;;
21886;SDS011;11108;49.988;8.182;2022-09-01T06:13:37;1.70;;;1.60;;
21886;SDS011;11108;49.988;8.182;2022-09-01T06:16:02;1.73;;;1.53;;
21886;SDS011;11108;49.988;8.182;2022-09-01T06:18:27;2.37;;;1.80;;
21886;SDS011;11108;49.988;8.182;2022-09-01T06:20:52;1.40;;;1.40;;
21886;SDS011;11108;49.988;8.182;2022-09-01T06:23:19;1.70;;;1.60;;
21886;SDS011;11108;49.988;8.182;2022-09-01T06:25:45;2.10;;;1.80;;
21886;SDS011;11108;49.988;8.182;2022-09-01T06:28:14;3.23;;;1.87;;
21886;SDS011;11108;49.988;8.182;2022-09-01T06:30:40;1.70;;;1.23;;
21886;SDS011;11108;49.988;8.182;2022-09-01T06:33:06;2.40;;;1.50;;
21886;SDS011;11108;49.988;8.182;2022-09-01T06:35:34;2.00;;;1.53;;
21886;SDS011;11108;49.988;8.182;2022-09-01T06:37:59;1.53;;;1.43;;
21886;SDS011;11108;49.988;8.182;2022-09-01T06:40:25;2.00;;;1.50;;
21886;SDS011;11108;49.988;8.182;2022-09-01T06:42:51;1.50;;;1.40;;
21886;SDS011;11108;49.988;8.182;2022-09-01T06:45:22;1.53;;;1.37;;
21886;SDS011;11108;49.988;8.182;2022-09-01T06:47:48;1.70;;;1.60;;
21886;SDS011;11108;49.988;8.182;2022-09-01T06:50:15;1.53;;;1.43;;
21886;SDS011;11108;49.988;8.182;2022-09-01T06:52:42;1.73;;;1.63;;
21886;SDS011;11108;49.988;8.182;2022-09-01T06:55:11;1.70;;;1.60;;
21886;SDS011;11108;49.988;8.182;2022-09-01T06:57:38;1.50;;;1.40;;
21886;SDS011;11108;49.988;8.182;2022-09-01T07:00:10;2.20;;;1.80;;
21886;SDS011;11108;49.988;8.182;2022-09-01T07:02:45;3.27;;;1.60;;
21886;SDS011;11108;49.988;8.182;2022-09-01T07:05:12;2.67;;;1.80;;
21886;SDS011;11108;49.988;8.182;2022-09-01T07:07:41;3.20;;;1.77;;
21886;SDS011;11108;49.988;8.182;2022-09-01T07:10:06;2.03;;;1.77;;
21886;SDS011;11108;49.988;8.182;2022-09-01T07:12:32;4.07;;;1.70;;
21886;SDS011;11108;49.988;8.182;2022-09-01T07:14:57;4.50;;;1.83;;
21886;SDS011;11108;49.988;8.182;2022-09-01T07:17:23;3.40;;;1.77;;
21886;SDS011;11108;49.988;8.182;2022-09-01T07:19:49;2.23;;;1.50;;
21886;SDS011;11108;49.988;8.182;2022-09-01T07:22:14;2.73;;;1.50;;
21886;SDS011;11108;49.988;8.182;2022-09-01T07:24:39;2.97;;;1.53;;
21886;SDS011;11108;49.988;8.182;2022-09-01T07:27:05;2.17;;;1.63;;
21886;SDS011;11108;49.988;8.182;2022-09-01T07:29:30;1.83;;;1.67;;
21886;SDS011;11108;49.988;8.182;2022-09-01T07:31:56;1.80;;;1.70;;
21886;SDS011;11108;49.988;8.182;2022-09-01T07:34:22;2.43;;;1.80;;
21886;SDS011;11108;49.988;8.182;2022-09-01T07:36:49;2.03;;;1.90;;
21886;SDS011;11108;49.988;8.182;2022-09-01T07:39:15;1.60;;;1.50;;
21886;SDS011;11108;49.988;8.182;2022-09-01T07:41:40;2.93;;;1.60;;
21886;SDS011;11108;49.988;8.182;2022-09-01T07:44:06;1.73;;;1.60;;
21886;SDS011;11108;49.988;8.182;2022-09-01T07:46:34;1.77;;;1.67;;
21886;SDS011;11108;49.988;8.182;2022-09-01T07:49:00;1.70;;;1.60;;
21886;SDS011;11108;49.988;8.182;2022-09-01T07:51:26;1.67;;;1.57;;
21886;SDS011;11108;49.988;8.182;2022-09-01T07:53:52;2.47;;;1.43;;
21886;SDS011;11108;49.988;8.182;2022-09-01T07:56:18;1.77;;;1.67;;
21886;SDS011;11108;49.988;8.182;2022-09-01T07:58:45;1.93;;;1.60;;
21886;SDS011;11108;49.988;8.182;2022-09-01T08:01:11;1.83;;;1.73;;
21886;SDS011;11108;49.988;8.182;2022-09-01T08:03:37;1.50;;;1.50;;
21886;SDS011;11108;49.988;8.182;2022-09-01T08:06:04;1.33;;;1.33;;
21886;SDS011;11108;49.988;8.182;2022-09-01T08:08:30;2.17;;;1.73;;
21886;SDS011;11108;49.988;8.182;2022-09-01T08:10:55;1.87;;;1.77;;
21886;SDS011;11108;49.988;8.182;2022-09-01T08:13:20;1.73;;;1.60;;
21886;SDS011;11108;49.988;8.182;2022-09-01T08:15:46;1.70;;;1.60;;
21886;SDS011;11108;49.988;8.182;2022-09-01T08:18:11;2.30;;;1.97;;
21886;SDS011;11108;49.988;8.182;2022-09-01T08:20:37;1.50;;;1.40;;
21886;SDS011;11108;49.988;8.182;2022-09-01T08:23:04;1.97;;;1.57;;
21886;SDS011;11108;49.988;8.182;2022-09-01T08:25:30;1.60;;;1.50;;
21886;SDS011;11108;49.988;8.182;2022-09-01T08:27:55;1.40;;;1.37;;
21886;SDS011;11108;49.988;8.182;2022-09-01T08:30:20;1.73;;;1.63;;
21886;SDS011;11108;49.988;8.182;2022-09-01T08:32:46;1.63;;;1.53;;
21886;SDS011;11108;49.988;8.182;2022-09-01T08:35:12;1.90;;;1.63;;
21886;SDS011;11108;49.988;8.182;2022-09-01T08:37:37;1.53;;;1.43;;
21886;SDS011;11108;49.988;8.182;2022-09-01T08:40:03;1.63;;;1.53;;
21886;SDS011;11108;49.988;8.182;2022-09-01T08:45:37;1.73;;;1.63;;
21886;SDS011;11108;49.988;8.182;2022-09-01T08:47:43;3.10;;;1.60;;
21886;SDS011;11108;49.988;8.182;2022-09-01T08:50:09;2.27;;;1.37;;
21886;SDS011;11108;49.988;8.182;2022-09-01T08:52:42;1.77;;;1.60;;
21886;SDS011;11108;49.988;8.182;2022-09-01T08:55:27;3.23;;;1.73;;
21886;SDS011;11108;49.988;8.182;2022-09-01T08:57:55;2.20;;;1.90;;
21886;SDS011;11108;49.988;8.182;2022-09-01T09:00:28;1.80;;;1.70;;
21886;SDS011;11108;49.988;8.182;2022-09-01T09:05:56;2.70;;;2.00;;
21886;SDS011;11108;49.988;8.182;2022-09-01T09:18:53;3.37;;;2.03;;
21886;SDS011;11108;49.988;8.182;2022-09-01T09:21:24;3.00;;;1.90;;
21886;SDS011;11108;49.988;8.182;2022-09-01T09:23:58;1.77;;;1.67;;
21886;SDS011;11108;49.988;8.182;2022-09-01T09:26:24;2.10;;;1.67;;
21886;SDS011;11108;49.988;8.182;2022-09-01T09:28:49;2.73;;;1.53;;
21886;SDS011;11108;49.988;8.182;2022-09-01T09:31:28;1.77;;;1.67;;
21886;SDS011;11108;49.988;8.182;2022-09-01T09:33:54;2.30;;;2.03;;
21886;SDS011;11108;49.988;8.182;2022-09-01T09:36:21;3.50;;;1.77;;
21886;SDS011;11108;49.988;8.182;2022-09-01T09:38:51;3.77;;;2.10;;
21886;SDS011;11108;49.988;8.182;2022-09-01T09:41:27;2.50;;;1.90;;
21886;SDS011;11108;49.988;8.182;2022-09-01T09:46:37;1.77;;;1.67;;
21886;SDS011;11108;49.988;8.182;2022-09-01T09:51:31;2.73;;;1.80;;
21886;SDS011;11108;49.988;8.182;2022-09-01T09:54:09;3.80;;;1.80;;
21886;SDS011;11108;49.988;8.182;2022-09-01T09:56:35;3.17;;;1.87;;
21886;SDS011;11108;49.988;8.182;2022-09-01T09:59:00;1.60;;;1.50;;
21886;SDS011;11108;49.988;8.182;2022-09-01T10:03:52;1.93;;;1.70;;
21886;SDS011;11108;49.988;8.182;2022-09-01T10:06:34;2.40;;;1.57;;
21886;SDS011;11108;49.988;8.182;2022-09-01T10:09:03;2.27;;;1.40;;
21886;SDS011;11108;49.988;8.182;2022-09-01T10:11:35;2.40;;;1.80;;
21886;SDS011;11108;49.988;8.182;2022-09-01T10:14:04;5.33;;;1.93;;
21886;SDS011;11108;49.988;8.182;2022-09-01T10:16:30;3.20;;;2.03;;
21886;SDS011;11108;49.988;8.182;2022-09-01T10:18:57;1.80;;;1.70;;
21886;SDS011;11108;49.988;8.182;2022-09-01T10:21:30;2.03;;;1.93;;
21886;SDS011;11108;49.988;8.182;2022-09-01T10:23:57;2.50;;;2.20;;
21886;SDS011;11108;49.988;8.182;2022-09-01T10:26:23;2.40;;;2.20;;
21886;SDS011;11108;49.988;8.182;2022-09-01T10:28:53;4.53;;;1.93;;
21886;SDS011;11108;49.988;8.182;2022-09-01T10:31:20;2.33;;;2.03;;
21886;SDS011;11108;49.988;8.182;2022-09-01T10:33:46;2.83;;;1.93;;
21886;SDS011;11108;49.988;8.182;2022-09-01T10:36:12;1.80;;;1.57;;
21886;SDS011;11108;49.988;8.182;2022-09-01T10:38:38;3.10;;;2.57;;
21886;SDS011;11108;49.988;8.182;2022-09-01T10:41:03;1.87;;;1.53;;
21886;SDS011;11108;49.988;8.182;2022-09-01T10:43:36;2.27;;;1.87;;
21886;SDS011;11108;49.988;8.182;2022-09-01T10:48:46;3.87;;;1.90;;
21886;SDS011;11108;49.988;8.182;2022-09-01T10:58:38;2.30;;;2.00;;
21886;SDS011;11108;49.988;8.182;2022-09-01T11:01:06;2.20;;;2.10;;
21886;SDS011;11108;49.988;8.182;2022-09-01T11:03:32;2.40;;;1.70;;
21886;SDS011;11108;49.988;8.182;2022-09-01T11:06:01;1.67;;;1.57;;
21886;SDS011;11108;49.988;8.182;2022-09-01T11:13:36;5.70;;;2.13;;
21886;SDS011;11108;49.988;8.182;2022-09-01T11:27:02;1.80;;;1.70;;
21886;SDS011;11108;49.988;8.182;2022-09-01T11:32:11;3.10;;;1.90;;
21886;SDS011;11108;49.988;8.182;2022-09-01T11:34:40;2.07;;;1.80;;
21886;SDS011;11108;49.988;8.182;2022-09-01T11:37:11;2.87;;;1.93;;
21886;SDS011;11108;49.988;8.182;2022-09-01T11:39:40;2.00;;;1.90;;
21886;SDS011;11108;49.988;8.182;2022-09-01T11:42:16;2.27;;;1.80;;
21886;SDS011;11108;49.988;8.182;2022-09-01T11:47:30;1.70;;;1.60;;
21886;SDS011;11108;49.988;8.182;2022-09-01T11:50:04;1.87;;;1.67;;
21886;SDS011;11108;49.988;8.182;2022-09-01T11:52:33;2.30;;;1.63;;
21886;SDS011;11108;49.988;8.182;2022-09-01T11:54:59;1.73;;;1.63;;
21886;SDS011;11108;49.988;8.182;2022-09-01T11:59:50;1.97;;;1.77;;
21886;SDS011;11108;49.988;8.182;2022-09-01T12:02:26;2.17;;;1.97;;
21886;SDS011;11108;49.988;8.182;2022-09-01T12:04:52;2.37;;;2.17;;
21886;SDS011;11108;49.988;8.182;2022-09-01T12:07:24;4.27;;;2.10;;
21886;SDS011;11108;49.988;8.182;2022-09-01T12:09:50;1.73;;;1.63;;
21886;SDS011;11108;49.988;8.182;2022-09-01T12:12:35;1.70;;;1.50;;
21886;SDS011;11108;49.988;8.182;2022-09-01T12:15:03;2.27;;;1.67;;
21886;SDS011;11108;49.988;8.182;2022-09-01T12:17:29;2.20;;;1.87;;
21886;SDS011;11108;49.988;8.182;2022-09-01T12:19:54;1.33;;;1.33;;
21886;SDS011;11108;49.988;8.182;2022-09-01T12:22:20;1.60;;;1.20;;
21886;SDS011;11108;49.988;8.182;2022-09-01T12:24:51;3.13;;;2.10;;
21886;SDS011;11108;49.988;8.182;2022-09-01T12:27:17;1.93;;;1.50;;
21886;SDS011;11108;49.988;8.182;2022-09-01T12:29:42;3.33;;;2.10;;
21886;SDS011;11108;49.988;8.182;2022-09-01T12:32:08;1.87;;;1.77;;
21886;SDS011;11108;49.988;8.182;2022-09-01T12:39:38;1.60;;;1.60;;
21886;SDS011;11108;49.988;8.182;2022-09-01T12:47:02;2.50;;;1.90;;
21886;SDS011;11108;49.988;8.182;2022-09-01T12:49:38;1.80;;;1.70;;
21886;SDS011;11108;49.988;8.182;2022-09-01T12:52:04;2.17;;;1.83;;
21886;SDS011;11108;49.988;8.182;2022-09-01T12:54:30;2.13;;;1.93;;
21886;SDS011;11108;49.988;8.182;2022-09-01T12:56:55;1.70;;;1.60;;
21886;SDS011;11108;49.988;8.182;2022-09-01T12:59:23;1.40;;;1.40;;
21886;SDS011;11108;49.988;8.182;2022-09-01T13:01:48;1.80;;;1.70;;
21886;SDS011;11108;49.988;8.182;2022-09-01T13:06:44;2.00;;;1.73;;
21886;SDS011;11108;49.988;8.182;2022-09-01T13:09:10;1.90;;;1.43;;
21886;SDS011;11108;49.988;8.182;2022-09-01T13:11:35;2.77;;;2.07;;
21886;SDS011;11108;49.988;8.182;2022-09-01T13:14:00;4.27;;;2.17;;
21886;SDS011;11108;49.988;8.182;2022-09-01T13:16:25;3.87;;;1.70;;
21886;SDS011;11108;49.988;8.182;2022-09-01T13:18:50;1.83;;;1.60;;
21886;SDS011;11108;49.988;8.182;2022-09-01T13:21:16;1.47;;;1.40;;
21886;SDS011;11108;49.988;8.182;2022-09-01T13:23:41;4.03;;;1.90;;
21886;SDS011;11108;49.988;8.182;2022-09-01T13:26:06;1.97;;;1.67;;
21886;SDS011;11108;49.988;8.182;2022-09-01T13:28:31;2.27;;;1.97;;
21886;SDS011;11108;49.988;8.182;2022-09-01T13:30:59;1.90;;;1.80;;
21886;SDS011;11108;49.988;8.182;2022-09-01T13:33:25;2.70;;;1.73;;
21886;SDS011;11108;49.988;8.182;2022-09-01T13:35:51;2.67;;;1.70;;
21886;SDS011;11108;49.988;8.182;2022-09-01T13:38:17;2.13;;;1.70;;
21886;SDS011;11108;49.988;8.182;2022-09-01T13:40:43;2.03;;;1.73;;
21886;SDS011;11108;49.988;8.182;2022-09-01T13:43:11;2.77;;;2.00;;
21886;SDS011;11108;49.988;8.182;2022-09-01T13:45:36;1.80;;;1.70;;
21886;SDS011;11108;49.988;8.182;2022-09-01T13:48:04;3.53;;;1.70;;
21886;SDS011;11108;49.988;8.182;2022-09-01T13:50:29;1.80;;;1.70;;
21886;SDS011;11108;49.988;8.182;2022-09-01T13:52:55;2.30;;;2.20;;
21886;SDS011;11108;49.988;8.182;2022-09-01T13:55:22;2.17;;;1.97;;
21886;SDS011;11108;49.988;8.182;2022-09-01T13:57:48;1.97;;;1.87;;
21886;SDS011;11108;49.988;8.182;2022-09-01T14:00:14;2.07;;;1.90;;
21886;SDS011;11108;49.988;8.182;2022-09-01T14:02:42;2.27;;;2.07;;
21886;SDS011;11108;49.988;8.182;2022-09-01T14:05:13;1.80;;;1.70;;
21886;SDS011;11108;49.988;8.182;2022-09-01T14:07:38;1.87;;;1.80;;
21886;SDS011;11108;49.988;8.182;2022-09-01T14:10:03;2.40;;;2.03;;
21886;SDS011;11108;49.988;8.182;2022-09-01T14:12:31;1.93;;;1.83;;
21886;SDS011;11108;49.988;8.182;2022-09-01T14:14:56;1.80;;;1.70;;
21886;SDS011;11108;49.988;8.182;2022-09-01T14:17:21;2.50;;;1.70;;
21886;SDS011;11108;49.988;8.182;2022-09-01T14:19:50;2.30;;;2.20;;
21886;SDS011;11108;49.988;8.182;2022-09-01T14:22:15;2.43;;;2.10;;
21886;SDS011;11108;49.988;8.182;2022-09-01T14:24:40;2.00;;;1.90;;
21886;SDS011;11108;49.988;8.182;2022-09-01T14:27:05;2.53;;;2.33;;
21886;SDS011;11108;49.988;8.182;2022-09-01T14:29:31;2.53;;;1.83;;
21886;SDS011;11108;49.988;8.182;2022-09-01T14:31:56;2.20;;;1.87;;
21886;SDS011;11108;49.988;8.182;2022-09-01T14:34:22;2.33;;;2.23;;
21886;SDS011;11108;49.988;8.182;2022-09-01T14:36:48;2.10;;;1.87;;
21886;SDS011;11108;49.988;8.182;2022-09-01T14:39:14;2.00;;;1.80;;
21886;SDS011;11108;49.988;8.182;2022-09-01T14:41:39;2.13;;;2.00;;
21886;SDS011;11108;49.988;8.182;2022-09-01T14:44:04;1.70;;;1.70;;
21886;SDS011;11108;49.988;8.182;2022-09-01T14:46:30;2.93;;;1.90;;
21886;SDS011;11108;49.988;8.182;2022-09-01T14:48:57;2.00;;;1.77;;
21886;SDS011;11108;49.988;8.182;2022-09-01T14:51:24;1.97;;;1.87;;
21886;SDS011;11108;49.988;8.182;2022-09-01T14:53:50;2.73;;;2.40;;
21886;SDS011;11108;49.988;8.182;2022-09-01T14:56:16;2.00;;;1.90;;
21886;SDS011;11108;49.988;8.182;2022-09-01T14:58:42;2.00;;;1.90;;
21886;SDS011;11108;49.988;8.182;2022-09-01T15:01:09;2.13;;;1.93;;
21886;SDS011;11108;49.988;8.182;2022-09-01T15:03:34;2.13;;;1.60;;
21886;SDS011;11108;49.988;8.182;2022-09-01T15:05:59;1.80;;;1.70;;
21886;SDS011;11108;49.988;8.182;2022-09-01T15:08:25;4.60;;;2.23;;
21886;SDS011;11108;49.988;8.182;2022-09-01T15:10:50;3.17;;;2.10;;
21886;SDS011;11108;49.988;8.182;2022-09-01T15:13:15;4.77;;;2.20;;
21886;SDS011;11108;49.988;8.182;2022-09-01T15:15:41;9.83;;;2.43;;
21886;SDS011;11108;49.988;8.182;2022-09-01T15:18:06;4.80;;;2.10;;
21886;SDS011;11108;49.988;8.182;2022-09-01T15:20:31;5.03;;;2.30;;
21886;SDS011;11108;49.988;8.182;2022-09-01T15:23:09;2.10;;;1.90;;
21886;SDS011;11108;49.988;8.182;2022-09-01T15:25:35;2.83;;;2.10;;
21886;SDS011;11108;49.988;8.182;2022-09-01T15:28:00;3.60;;;2.20;;
21886;SDS011;11108;49.988;8.182;2022-09-01T15:30:25;3.00;;;1.87;;
21886;SDS011;11108;49.988;8.182;2022-09-01T15:32:52;2.70;;;2.47;;
21886;SDS011;11108;49.988;8.182;2022-09-01T15:35:18;2.57;;;1.90;;
21886;SDS011;11108;49.988;8.182;2022-09-01T15:37:48;2.90;;;2.30;;
21886;SDS011;11108;49.988;8.182;2022-09-01T15:40:13;2.30;;;2.03;;
21886;SDS011;11108;49.988;8.182;2022-09-01T15:42:39;2.30;;;1.90;;
21886;SDS011;11108;49.988;8.182;2022-09-01T15:45:06;3.27;;;2.13;;
21886;SDS011;11108;49.988;8.182;2022-09-01T15:47:32;2.67;;;2.20;;
21886;SDS011;11108;49.988;8.182;2022-09-01T15:49:57;3.07;;;2.07;;
21886;SDS011;11108;49.988;8.182;2022-09-01T15:52:23;2.10;;;2.00;;
21886;SDS011;11108;49.988;8.182;2022-09-01T15:54:48;2.97;;;2.00;;
21886;SDS011;11108;49.988;8.182;2022-09-01T15:57:14;3.00;;;2.07;;